LUX weather

Laurens County Airport
Laurens, South Carolina, United States

Public forecast

Using degrees Fahrenheit for public forecast. Weather courtesy of forecast.io.

Current aviation weather report (METAR) for Laurens County Airport

Retrieved 2019/10/13 22:35 UTC (4 minutes ago):

KLUX 132235Z AUTO 23003KT 10SM SCT043 SCT075 SCT090 19/18 A3002 RMK AO2 LTG DSNT E P0001

Closest aviation forecast (TAF) to Laurens County Airport

Closest forecast is Greenville Spartanburg International Airport, 26.9 nm (49.8 km) NNW. Retrieved 2019/10/13 18:57 UTC (4 hours ago):

TAF COR KGSP 131853Z 1318/1418 20007KT 6SM -SHRA BR VCTS SCT006 OVC010CB TEMPO 1319/1323 3SM SHRA BR OVC006 FM132300 23006KT P6SM VCSH SCT020 BKN040 FM141000 VRB02KT 3SM BR FEW010 SCT250 FM141400 33005KT P6SM SCT250